Time;durP1;ratioP1;P1;durP2;ratioP2;P2;SDS_P1;SDS_P2;PMS_P1;PMS_P2;Temp;Humidity;BMP_temperature;BMP_pressure;BME280_temperature;BME280_humidity;BME280_pressure;Samples;Min_cycle;Max_cycle;Signal;HPM_P1;HPM_P2
2021/10/20 00:00:27;;;;;;;11.35;6.97;;;14.60;99.90;;;;;;5042849;28;20060;-83
2021/10/20 00:02:55;;;;;;;9.45;6.93;;;14.60;99.90;;;;;;5018079;28;20049;-81
2021/10/20 00:05:23;;;;;;;11.18;6.95;;;14.50;99.90;;;;;;5015947;28;20060;-79
2021/10/20 00:07:51;;;;;;;11.10;7.40;;;14.50;99.90;;;;;;5014802;28;20037;-80
2021/10/20 00:10:19;;;;;;;7.65;5.68;;;14.50;99.90;;;;;;5012994;28;20045;-80
2021/10/20 00:12:48;;;;;;;9.82;7.35;;;14.60;99.90;;;;;;5014446;28;20040;-80
2021/10/20 00:15:18;;;;;;;10.30;6.93;;;14.70;99.90;;;;;;5045847;28;20049;-80
2021/10/20 00:17:45;;;;;;;9.15;6.57;;;14.70;99.90;;;;;;5017613;28;20056;-81
2021/10/20 00:20:16;;;;;;;8.25;7.07;;;14.70;99.90;;;;;;5052755;28;20055;-80
2021/10/20 00:22:43;;;;;;;8.70;7.18;;;14.60;99.90;;;;;;5033364;28;20045;-81
2021/10/20 00:25:11;;;;;;;10.13;7.45;;;14.60;99.90;;;;;;5017425;28;20103;-80
2021/10/20 00:27:38;;;;;;;8.68;6.15;;;14.50;99.90;;;;;;5018099;28;20049;-81
2021/10/20 00:30:06;;;;;;;8.85;6.38;;;14.40;99.90;;;;;;5016080;28;20052;-80
2021/10/20 00:32:33;;;;;;;9.95;7.10;;;14.30;99.90;;;;;;5015360;28;20041;-80
2021/10/20 00:34:59;;;;;;;9.25;6.57;;;14.30;99.90;;;;;;5031134;28;20517;-81
2021/10/20 00:37:26;;;;;;;9.65;6.82;;;14.30;99.90;;;;;;5029195;28;20076;-81
2021/10/20 00:39:53;;;;;;;9.88;6.15;;;14.20;99.90;;;;;;5000879;28;20056;-80
2021/10/20 00:42:21;;;;;;;9.75;6.68;;;14.30;99.90;;;;;;5013113;28;20037;-81
2021/10/20 00:44:56;;;;;;;8.75;6.75;;;14.30;99.90;;;;;;5031762;28;20046;-82
2021/10/20 00:47:28;;;;;;;8.23;6.03;;;14.30;99.90;;;;;;5019187;28;20417;-80
2021/10/20 00:49:55;;;;;;;7.63;6.53;;;14.30;99.90;;;;;;5049690;28;20179;-81
2021/10/20 00:52:24;;;;;;;8.27;6.00;;;14.40;99.90;;;;;;5019358;28;20082;-80
2021/10/20 00:54:53;;;;;;;7.28;5.82;;;14.40;99.90;;;;;;5011463;28;20053;-81
2021/10/20 00:57:21;;;;;;;9.45;6.35;;;14.30;99.90;;;;;;5020941;28;20156;-80
2021/10/20 00:59:49;;;;;;;9.55;6.30;;;14.30;99.90;;;;;;5018763;28;20490;-80
2021/10/20 01:02:16;;;;;;;9.23;6.53;;;14.30;99.90;;;;;;5002860;28;20169;-81
2021/10/20 01:04:47;;;;;;;7.43;6.28;;;14.20;99.90;;;;;;5027417;28;20045;-80
2021/10/20 01:07:15;;;;;;;8.07;5.65;;;14.20;99.90;;;;;;5052059;28;20452;-80
2021/10/20 01:09:42;;;;;;;7.43;5.78;;;14.20;99.90;;;;;;5018112;28;20059;-81
2021/10/20 01:12:09;;;;;;;6.15;5.50;;;14.10;99.90;;;;;;5031749;28;20068;-80
2021/10/20 01:14:37;;;;;;;7.63;6.00;;;14.10;99.90;;;;;;5016933;28;20046;-81
2021/10/20 01:17:04;;;;;;;8.48;6.40;;;14.10;99.90;;;;;;5032083;28;20041;-81
2021/10/20 01:19:31;;;;;;;6.82;5.60;;;14.00;99.90;;;;;;5037026;28;20072;-80
2021/10/20 01:21:58;;;;;;;8.98;5.82;;;14.00;99.90;;;;;;5035177;28;20190;-81
2021/10/20 01:24:25;;;;;;;6.57;5.65;;;14.00;99.90;;;;;;5036290;28;20052;-81
2021/10/20 01:26:55;;;;;;;8.88;6.43;;;14.00;99.90;;;;;;5036789;28;20040;-81
2021/10/20 01:29:23;;;;;;;10.35;6.13;;;14.10;99.90;;;;;;5033782;28;20095;-82
2021/10/20 01:31:52;;;;;;;8.43;6.63;;;14.00;99.90;;;;;;5026822;28;20255;-82
2021/10/20 01:34:20;;;;;;;7.13;5.82;;;14.00;99.90;;;;;;5037775;28;20055;-82
2021/10/20 01:36:55;;;;;;;9.98;5.72;;;14.00;99.90;;;;;;5038068;28;20365;-81
2021/10/20 01:39:23;;;;;;;7.00;5.70;;;13.90;99.90;;;;;;5033240;28;20437;-82
2021/10/20 01:41:49;;;;;;;7.53;5.80;;;13.80;99.90;;;;;;5019052;28;20049;-82
2021/10/20 01:44:16;;;;;;;8.70;6.20;;;13.80;99.90;;;;;;5034438;28;20323;-82
2021/10/20 01:46:43;;;;;;;8.38;6.28;;;13.60;99.90;;;;;;5018941;28;20574;-82
2021/10/20 01:49:11;;;;;;;7.88;5.85;;;13.60;99.90;;;;;;5015214;28;20056;-82
2021/10/20 01:51:37;;;;;;;8.73;5.90;;;13.50;99.90;;;;;;5030727;28;20556;-81
2021/10/20 01:54:06;;;;;;;9.10;5.80;;;13.50;99.90;;;;;;5012467;28;20136;-80
2021/10/20 01:56:33;;;;;;;9.85;5.97;;;13.60;99.90;;;;;;5029254;28;20056;-82
2021/10/20 01:59:00;;;;;;;8.20;5.95;;;13.50;99.90;;;;;;5034498;28;20474;-82
2021/10/20 02:01:28;;;;;;;7.55;5.60;;;13.50;99.90;;;;;;5023055;28;20072;-82
2021/10/20 02:03:55;;;;;;;8.50;5.88;;;13.50;99.90;;;;;;5004197;28;20088;-81
2021/10/20 02:06:22;;;;;;;6.70;5.85;;;13.50;99.90;;;;;;4996827;28;20049;-81
2021/10/20 02:08:50;;;;;;;7.20;5.68;;;13.50;99.90;;;;;;4965651;28;20032;-80
2021/10/20 02:11:19;;;;;;;6.82;5.82;;;13.40;99.90;;;;;;4978694;28;20034;-82
2021/10/20 02:13:47;;;;;;;8.02;5.70;;;13.40;99.90;;;;;;4965933;28;20050;-82
2021/10/20 02:16:14;;;;;;;9.63;6.13;;;13.40;99.90;;;;;;5023138;28;20041;-81
2021/10/20 02:18:41;;;;;;;8.02;5.32;;;13.40;99.90;;;;;;5033501;28;20425;-81
2021/10/20 02:21:09;;;;;;;7.65;5.43;;;13.30;99.90;;;;;;5013377;28;20391;-81
2021/10/20 02:23:36;;;;;;;7.35;6.20;;;13.30;99.90;;;;;;5013576;28;20045;-82
2021/10/20 02:26:03;;;;;;;9.55;5.57;;;13.40;99.90;;;;;;5014827;28;20042;-81
2021/10/20 02:28:31;;;;;;;12.38;5.38;;;13.40;99.90;;;;;;5018134;28;20056;-81
2021/10/20 02:30:58;;;;;;;8.80;5.63;;;13.40;99.90;;;;;;4996022;28;20103;-81
2021/10/20 02:33:25;;;;;;;8.30;5.13;;;13.40;99.90;;;;;;5011815;28;20052;-80
2021/10/20 02:35:52;;;;;;;5.82;4.65;;;13.50;99.90;;;;;;4981783;28;20513;-80
2021/10/20 02:38:19;;;;;;;7.88;5.80;;;13.60;99.90;;;;;;4995312;28;20053;-82
2021/10/20 02:40:46;;;;;;;6.32;5.40;;;13.80;99.90;;;;;;5026219;28;20074;-82
2021/10/20 02:43:13;;;;;;;7.55;5.88;;;14.00;99.90;;;;;;4995599;28;20137;-79
2021/10/20 02:45:40;;;;;;;6.70;6.20;;;14.30;99.90;;;;;;5003897;28;20049;-80
2021/10/20 02:48:07;;;;;;;7.43;5.80;;;14.50;99.90;;;;;;5013697;28;20057;-81
2021/10/20 02:50:34;;;;;;;7.15;6.35;;;14.50;99.90;;;;;;5015050;28;20047;-80
2021/10/20 02:53:01;;;;;;;7.13;6.20;;;14.60;99.90;;;;;;5014502;28;20052;-81
2021/10/20 02:55:29;;;;;;;7.05;6.38;;;14.80;99.90;;;;;;5028846;28;20048;-81
2021/10/20 02:57:56;;;;;;;6.85;6.15;;;14.70;99.90;;;;;;5015194;28;20067;-80
2021/10/20 03:00:23;;;;;;;7.10;6.57;;;14.70;99.90;;;;;;5030838;28;20057;-80
2021/10/20 03:02:50;;;;;;;7.18;6.65;;;14.70;99.90;;;;;;5014826;28;20131;-81
2021/10/20 03:05:17;;;;;;;7.55;6.88;;;14.80;99.90;;;;;;5012986;28;20108;-80
2021/10/20 03:07:51;;;;;;;8.27;7.57;;;14.70;99.90;;;;;;5063873;28;20033;-81
2021/10/20 03:10:18;;;;;;;7.53;6.75;;;14.70;99.90;;;;;;5026894;28;20098;-82
2021/10/20 03:12:45;;;;;;;13.55;6.97;;;14.70;99.90;;;;;;5035437;28;20078;-81
2021/10/20 03:15:12;;;;;;;6.85;6.22;;;14.70;99.90;;;;;;5059078;28;20493;-80
2021/10/20 03:17:39;;;;;;;7.63;7.03;;;14.80;99.90;;;;;;5015621;28;20099;-79
2021/10/20 03:20:09;;;;;;;7.60;7.00;;;14.70;99.90;;;;;;5031452;28;20407;-82
2021/10/20 03:22:41;;;;;;;7.68;6.95;;;14.70;99.90;;;;;;5032067;28;20040;-81
2021/10/20 03:25:10;;;;;;;7.90;7.20;;;14.70;99.90;;;;;;5029531;28;20064;-82
2021/10/20 03:27:41;;;;;;;8.18;7.35;;;14.70;99.90;;;;;;5009910;28;20502;-82
2021/10/20 03:30:09;;;;;;;7.82;7.03;;;14.70;99.90;;;;;;5014974;28;20041;-84
2021/10/20 03:32:36;;;;;;;7.70;7.03;;;14.80;99.90;;;;;;5015928;28;20045;-82
2021/10/20 03:35:04;;;;;;;8.13;7.28;;;15.00;99.90;;;;;;5032391;28;20055;-81
2021/10/20 03:37:31;;;;;;;7.63;7.03;;;15.00;99.90;;;;;;5013319;28;20041;-81
2021/10/20 03:39:58;;;;;;;8.10;7.50;;;15.00;99.90;;;;;;5010827;28;20087;-82
2021/10/20 03:42:25;;;;;;;7.38;6.68;;;15.00;99.90;;;;;;5011921;28;20045;-81
2021/10/20 03:44:52;;;;;;;8.10;6.88;;;15.20;99.90;;;;;;5015166;28;20040;-82
2021/10/20 03:47:19;;;;;;;7.03;6.50;;;15.10;99.90;;;;;;5013834;28;20045;-82
2021/10/20 03:49:48;;;;;;;7.53;6.47;;;15.00;99.90;;;;;;5044796;28;20072;-81
2021/10/20 03:52:15;;;;;;;7.05;6.40;;;14.90;99.90;;;;;;5030277;28;20045;-81
2021/10/20 03:54:42;;;;;;;7.68;6.20;;;15.00;99.90;;;;;;5015392;28;20049;-81
2021/10/20 03:57:10;;;;;;;7.07;6.38;;;14.90;99.90;;;;;;5051145;28;20044;-81
2021/10/20 03:59:37;;;;;;;7.00;6.30;;;14.80;99.90;;;;;;5031629;28;20064;-80
2021/10/20 04:02:04;;;;;;;6.68;5.97;;;14.90;99.90;;;;;;5048676;28;20079;-83
2021/10/20 04:04:31;;;;;;;8.27;5.72;;;15.00;99.90;;;;;;5017756;28;20049;-80
2021/10/20 04:06:58;;;;;;;8.07;6.28;;;15.10;99.90;;;;;;5009290;28;20064;-81
2021/10/20 04:09:24;;;;;;;7.50;5.28;;;15.10;99.90;;;;;;4976797;28;20053;-81
2021/10/20 04:11:51;;;;;;;6.00;5.47;;;15.20;99.90;;;;;;5004845;28;20041;-80
2021/10/20 04:14:18;;;;;;;6.25;5.65;;;15.20;99.90;;;;;;5013750;28;20482;-81
2021/10/20 04:16:45;;;;;;;7.05;5.43;;;15.20;99.90;;;;;;5008093;28;20106;-81
2021/10/20 04:19:12;;;;;;;5.63;5.10;;;15.30;99.90;;;;;;5013456;28;20525;-81
2021/10/20 04:21:39;;;;;;;6.45;5.35;;;15.40;99.90;;;;;;5013937;28;20111;-82
2021/10/20 04:24:07;;;;;;;11.52;5.32;;;15.40;99.90;;;;;;5031481;28;20045;-81
2021/10/20 04:26:34;;;;;;;5.07;4.68;;;15.50;99.90;;;;;;5033990;28;20101;-81
2021/10/20 04:29:00;;;;;;;8.45;5.72;;;15.50;99.90;;;;;;5037941;28;20095;-80
2021/10/20 04:31:27;;;;;;;8.90;6.35;;;15.50;99.90;;;;;;5035306;28;20053;-81
2021/10/20 04:33:54;;;;;;;7.07;5.90;;;15.70;99.90;;;;;;5032836;28;20056;-80
2021/10/20 04:36:21;;;;;;;7.03;6.05;;;15.80;99.90;;;;;;5016233;28;20041;-81
2021/10/20 04:38:47;;;;;;;6.13;5.63;;;15.80;99.90;;;;;;5018555;28;20054;-81
2021/10/20 04:41:14;;;;;;;6.43;5.78;;;15.90;99.90;;;;;;5017643;28;20651;-81
2021/10/20 04:43:42;;;;;;;9.25;6.53;;;15.90;99.90;;;;;;5033172;28;20068;-81
2021/10/20 04:46:09;;;;;;;7.53;6.40;;;16.00;99.90;;;;;;5036376;28;20052;-80
2021/10/20 04:48:35;;;;;;;8.25;5.95;;;16.10;99.90;;;;;;5047479;28;20497;-82
2021/10/20 04:51:02;;;;;;;7.55;6.57;;;16.10;99.90;;;;;;5032811;28;20490;-83
2021/10/20 04:53:29;;;;;;;9.75;6.60;;;16.10;99.90;;;;;;5021315;23;20037;-70
2021/10/20 04:55:56;;;;;;;8.00;7.20;;;16.20;99.90;;;;;;5003043;28;20401;-67
2021/10/20 04:58:23;;;;;;;7.30;6.60;;;16.20;99.90;;;;;;4993376;28;20077;-71
2021/10/20 05:00:49;;;;;;;8.23;7.22;;;16.00;99.90;;;;;;4965891;28;20136;-71
2021/10/20 05:03:16;;;;;;;11.32;7.50;;;16.00;99.90;;;;;;4986834;28;20042;-70
2021/10/20 05:05:43;;;;;;;8.35;7.55;;;16.00;99.90;;;;;;4982478;28;20050;-69
2021/10/20 05:08:10;;;;;;;9.98;7.65;;;16.00;99.90;;;;;;5015388;28;20073;-69
2021/10/20 05:10:39;;;;;;;8.85;7.93;;;15.90;99.90;;;;;;4983771;28;20050;-69
2021/10/20 05:13:06;;;;;;;8.18;7.32;;;15.90;99.90;;;;;;4984510;28;20105;-67
2021/10/20 05:15:33;;;;;;;10.90;8.20;;;15.90;99.90;;;;;;4998172;28;20109;-69
2021/10/20 05:18:00;;;;;;;10.55;8.48;;;16.00;99.90;;;;;;4982746;28;20060;-69
2021/10/20 05:20:26;;;;;;;10.70;8.07;;;16.00;99.90;;;;;;5003093;28;20810;-70
2021/10/20 05:22:53;;;;;;;9.75;8.48;;;16.10;99.90;;;;;;4996944;28;20065;-72
2021/10/20 05:25:20;;;;;;;8.70;7.72;;;16.10;99.90;;;;;;4974856;28;20068;-70
2021/10/20 05:27:47;;;;;;;13.70;9.75;;;16.00;99.90;;;;;;4999306;28;20093;-68
2021/10/20 05:30:14;;;;;;;10.35;8.93;;;15.90;99.90;;;;;;4979392;28;20069;-70
2021/10/20 05:32:41;;;;;;;14.38;9.57;;;15.90;99.90;;;;;;4963676;28;20047;-68
2021/10/20 05:35:09;;;;;;;13.52;10.02;;;15.90;99.90;;;;;;4977618;28;20714;-66
2021/10/20 05:37:36;;;;;;;11.65;10.45;;;15.90;99.90;;;;;;4978841;28;20125;-69
2021/10/20 05:40:04;;;;;;;10.00;9.13;;;15.90;99.90;;;;;;4987765;28;20051;-67
2021/10/20 05:42:31;;;;;;;13.95;9.60;;;15.90;99.90;;;;;;4979590;28;20526;-69
2021/10/20 05:44:58;;;;;;;10.98;9.85;;;15.80;99.90;;;;;;4971084;28;20595;-69
2021/10/20 05:47:25;;;;;;;10.70;9.63;;;15.90;99.90;;;;;;4992087;28;20590;-70
2021/10/20 05:49:51;;;;;;;10.18;8.73;;;15.90;99.90;;;;;;4999841;28;20056;-69
2021/10/20 05:52:19;;;;;;;10.07;8.85;;;15.80;99.90;;;;;;4982670;28;20038;-71
2021/10/20 05:54:46;;;;;;;10.55;8.98;;;15.70;99.90;;;;;;5017263;28;20586;-68
2021/10/20 05:57:13;;;;;;;13.20;9.48;;;15.60;99.90;;;;;;4969620;28;20051;-70
2021/10/20 05:59:39;;;;;;;11.90;9.13;;;15.60;99.90;;;;;;4981114;28;21534;-67
2021/10/20 06:02:09;;;;;;;13.00;8.85;;;15.60;99.90;;;;;;4998216;28;20049;-69
2021/10/20 06:04:37;;;;;;;10.23;9.25;;;15.60;99.90;;;;;;4981467;28;20046;-70
2021/10/20 06:07:04;;;;;;;10.25;9.02;;;15.50;99.90;;;;;;4997716;28;20052;-72
2021/10/20 06:09:33;;;;;;;11.57;9.02;;;15.40;99.90;;;;;;4997643;28;20050;-69
2021/10/20 06:12:01;;;;;;;12.35;9.05;;;15.40;99.90;;;;;;4981167;28;20042;-71
2021/10/20 06:14:28;;;;;;;10.48;9.38;;;15.30;99.90;;;;;;4982516;28;20058;-70
2021/10/20 06:16:56;;;;;;;13.10;9.75;;;15.30;99.90;;;;;;4983740;28;20068;-69
2021/10/20 06:19:23;;;;;;;10.65;8.57;;;15.30;99.90;;;;;;4999413;28;20050;-68
2021/10/20 06:21:50;;;;;;;10.70;8.45;;;15.30;99.90;;;;;;5001024;28;20050;-67
2021/10/20 06:24:17;;;;;;;16.98;9.73;;;15.20;99.90;;;;;;4989551;28;20084;-71
2021/10/20 06:26:44;;;;;;;10.43;9.30;;;15.20;99.90;;;;;;4981204;28;20290;-68
2021/10/20 06:29:10;;;;;;;16.95;12.52;;;15.20;99.90;;;;;;4980575;28;20046;-69
2021/10/20 06:31:37;;;;;;;15.73;10.73;;;15.30;99.90;;;;;;4981753;28;20049;-71
2021/10/20 06:34:06;;;;;;;11.90;10.65;;;15.50;99.90;;;;;;4981159;28;20050;-71
2021/10/20 06:36:36;;;;;;;12.85;9.82;;;15.50;99.90;;;;;;4996539;28;20052;-70
2021/10/20 06:39:03;;;;;;;13.52;10.98;;;15.50;99.90;;;;;;4984915;28;20062;-70
2021/10/20 06:41:30;;;;;;;14.68;10.60;;;15.40;99.90;;;;;;4997779;28;20331;-71
2021/10/20 06:43:57;;;;;;;15.75;11.68;;;15.30;99.90;;;;;;4980667;28;20046;-69
2021/10/20 06:46:24;;;;;;;15.20;11.43;;;15.30;99.90;;;;;;5014819;28;20050;-71
2021/10/20 06:48:53;;;;;;;22.80;13.95;;;15.20;99.90;;;;;;5000295;28;20080;-69
2021/10/20 06:51:20;;;;;;;13.65;9.95;;;15.20;99.90;;;;;;5001767;28;20057;-72
2021/10/20 06:53:47;;;;;;;13.30;11.27;;;15.20;99.90;;;;;;4986470;28;20078;-69
2021/10/20 06:56:14;;;;;;;13.90;9.60;;;15.20;99.90;;;;;;4993960;28;20459;-71
2021/10/20 06:58:42;;;;;;;11.73;10.20;;;15.10;99.90;;;;;;4980777;28;20233;-71
2021/10/20 07:01:09;;;;;;;14.23;9.00;;;15.00;99.90;;;;;;4997615;28;20077;-69
2021/10/20 07:03:36;;;;;;;13.20;8.40;;;14.90;99.90;;;;;;4987810;28;20069;-69
2021/10/20 07:06:06;;;;;;;8.70;7.80;;;14.60;99.90;;;;;;4982006;28;20208;-69
2021/10/20 07:08:33;;;;;;;9.40;8.00;;;14.30;99.90;;;;;;5013893;28;20042;-71
2021/10/20 07:11:00;;;;;;;9.90;8.13;;;14.00;99.90;;;;;;4981517;28;20047;-72
2021/10/20 07:13:27;;;;;;;11.77;8.75;;;13.90;99.90;;;;;;4981742;28;20499;-71
2021/10/20 07:15:57;;;;;;;11.40;7.05;;;13.70;99.90;;;;;;4997610;28;20049;-71
2021/10/20 07:18:27;;;;;;;10.13;8.02;;;13.60;99.90;;;;;;4998446;28;20046;-70
2021/10/20 07:21:01;;;;;;;9.20;6.88;;;13.50;99.90;;;;;;4980021;28;20042;-70
2021/10/20 07:23:29;;;;;;;11.43;8.15;;;13.50;99.90;;;;;;4950386;28;20050;-69
2021/10/20 07:25:57;;;;;;;10.57;7.50;;;13.40;99.90;;;;;;4993416;28;20066;-69
2021/10/20 07:28:24;;;;;;;10.63;7.47;;;13.30;99.90;;;;;;4997092;28;20613;-69
2021/10/20 07:30:51;;;;;;;11.30;7.78;;;13.30;99.90;;;;;;4981361;28;20645;-70
2021/10/20 07:33:19;;;;;;;10.52;7.10;;;13.30;99.90;;;;;;4997261;28;20042;-68
2021/10/20 07:35:50;;;;;;;11.75;7.95;;;13.20;99.90;;;;;;4978267;28;20035;-70
2021/10/20 07:38:18;;;;;;;10.20;7.93;;;13.30;99.90;;;;;;4998111;28;20038;-69
2021/10/20 07:40:45;;;;;;;12.70;8.10;;;13.30;99.90;;;;;;4980491;28;20278;-73
2021/10/20 07:43:15;;;;;;;9.10;7.32;;;13.30;99.90;;;;;;4997390;28;20054;-70
2021/10/20 07:46:00;;;;;;;10.73;7.28;;;13.30;99.90;;;;;;4994639;28;20117;-71
2021/10/20 07:48:28;;;;;;;8.77;7.70;;;13.40;99.90;;;;;;4991973;28;20042;-69
2021/10/20 07:50:57;;;;;;;10.57;7.70;;;13.40;99.90;;;;;;4982561;28;20125;-68
2021/10/20 07:53:24;;;;;;;8.10;6.93;;;13.40;99.90;;;;;;4991948;28;20043;-70
2021/10/20 07:55:58;;;;;;;9.57;7.43;;;13.30;99.90;;;;;;4994030;28;20038;-71
2021/10/20 07:58:27;;;;;;;12.45;8.73;;;13.30;99.90;;;;;;4997290;28;20057;-70
2021/10/20 08:00:56;;;;;;;9.63;7.80;;;13.30;99.90;;;;;;4989459;28;20046;-69
2021/10/20 08:03:24;;;;;;;10.48;8.57;;;13.30;99.90;;;;;;4981737;28;20050;-70
2021/10/20 08:05:51;;;;;;;10.60;7.80;;;13.30;99.90;;;;;;4995732;28;20047;-70
2021/10/20 08:08:18;;;;;;;9.45;7.97;;;13.40;99.90;;;;;;4998175;28;20518;-70
2021/10/20 08:10:46;;;;;;;10.27;7.80;;;13.40;99.90;;;;;;4996230;28;20604;-70
2021/10/20 08:13:13;;;;;;;9.30;7.68;;;13.40;99.90;;;;;;4981390;28;20046;-70
2021/10/20 08:15:42;;;;;;;10.52;8.02;;;13.50;99.90;;;;;;4997009;28;20050;-71
2021/10/20 08:18:10;;;;;;;8.77;7.88;;;13.50;99.90;;;;;;4990008;28;20105;-70
2021/10/20 08:20:40;;;;;;;8.15;7.10;;;13.50;99.90;;;;;;4982532;28;20112;-69
2021/10/20 08:23:07;;;;;;;9.75;7.43;;;13.50;99.90;;;;;;4983404;28;20546;-67
2021/10/20 08:25:38;;;;;;;16.33;8.55;;;13.50;99.90;;;;;;4999777;28;20104;-69
2021/10/20 08:28:07;;;;;;;9.57;7.35;;;13.40;99.90;;;;;;4995714;28;20138;-70
2021/10/20 08:30:35;;;;;;;11.82;7.82;;;13.40;99.90;;;;;;4984609;28;20724;-70
2021/10/20 08:33:04;;;;;;;10.45;6.57;;;13.50;99.90;;;;;;5016785;28;20046;-67
2021/10/20 08:35:32;;;;;;;8.68;6.32;;;13.40;99.90;;;;;;5001142;28;20049;-70
2021/10/20 08:38:05;;;;;;;8.45;7.18;;;13.50;99.90;;;;;;4982240;28;20051;-68
2021/10/20 08:40:39;;;;;;;12.45;8.13;;;13.40;99.90;;;;;;4980716;28;20100;-69
2021/10/20 08:43:17;;;;;;;7.90;6.70;;;13.40;99.90;;;;;;4998677;28;20053;-67
2021/10/20 08:45:47;;;;;;;8.07;6.90;;;13.30;99.90;;;;;;4996120;28;20431;-68
2021/10/20 08:48:18;;;;;;;10.20;6.82;;;13.40;99.90;;;;;;5003510;28;20042;-69
2021/10/20 08:50:52;;;;;;;8.38;7.18;;;13.40;99.90;;;;;;4991675;28;20498;-69
2021/10/20 08:53:20;;;;;;;8.88;7.35;;;13.50;99.90;;;;;;4999307;28;20090;-68
2021/10/20 08:55:47;;;;;;;8.45;7.03;;;13.60;99.90;;;;;;4999806;28;20115;-69
2021/10/20 08:58:15;;;;;;;10.50;7.18;;;13.70;99.90;;;;;;4997132;28;20126;-69
2021/10/20 09:00:43;;;;;;;9.07;7.55;;;13.70;99.90;;;;;;5001034;28;20080;-68
2021/10/20 09:03:14;;;;;;;9.45;7.60;;;13.60;99.90;;;;;;4979954;28;20060;-68
2021/10/20 09:05:41;;;;;;;11.73;7.88;;;13.70;99.90;;;;;;5029709;22;20049;-72
2021/10/20 09:08:08;;;;;;;9.15;7.18;;;13.80;99.90;;;;;;4999587;28;20049;-72
2021/10/20 09:10:36;;;;;;;11.20;7.88;;;13.80;99.90;;;;;;5025794;28;20440;-72
2021/10/20 09:13:03;;;;;;;9.70;6.45;;;13.90;99.90;;;;;;5008409;28;20050;-74
2021/10/20 09:15:35;;;;;;;10.60;8.70;;;14.00;99.90;;;;;;5006835;28;20105;-75
2021/10/20 09:18:09;;;;;;;8.98;8.10;;;14.20;99.90;;;;;;5018735;28;20072;-76
2021/10/20 09:20:41;;;;;;;10.48;7.43;;;14.40;99.90;;;;;;5027291;28;20049;-76
2021/10/20 09:23:21;;;;;;;11.32;8.48;;;14.60;99.90;;;;;;5027399;28;20349;-75
2021/10/20 09:25:58;;;;;;;8.77;6.85;;;14.80;99.90;;;;;;5028236;28;20045;-75
2021/10/20 09:28:32;;;;;;;9.45;8.55;;;14.90;99.90;;;;;;5023467;28;20058;-75
2021/10/20 09:31:02;;;;;;;8.50;7.60;;;15.00;99.90;;;;;;5004552;28;20059;-74
2021/10/20 09:33:37;;;;;;;10.73;8.95;;;14.90;99.90;;;;;;5007069;28;20062;-75
2021/10/20 09:36:14;;;;;;;10.88;8.10;;;14.80;99.90;;;;;;4997060;28;20050;-75
2021/10/20 09:38:51;;;;;;;10.23;8.35;;;14.70;99.90;;;;;;4990773;28;20050;-76
2021/10/20 09:41:18;;;;;;;9.68;7.72;;;14.60;99.90;;;;;;5008437;28;20091;-76
2021/10/20 09:43:54;;;;;;;8.48;7.43;;;14.70;99.90;;;;;;4974709;28;20393;-74
2021/10/20 09:46:35;;;;;;;11.05;8.15;;;14.80;99.90;;;;;;4994068;28;20099;-76
2021/10/20 09:49:19;;;;;;;8.63;7.25;;;14.90;99.90;;;;;;5001098;28;20064;-75
2021/10/20 09:51:47;;;;;;;11.47;7.67;;;14.90;99.90;;;;;;5020606;28;20041;-75
2021/10/20 09:54:27;;;;;;;11.95;7.32;;;15.00;99.90;;;;;;5007908;28;20054;-75
2021/10/20 09:57:01;;;;;;;8.02;7.15;;;15.00;99.90;;;;;;5003322;28;20085;-75
2021/10/20 09:59:29;;;;;;;9.43;8.43;;;15.10;99.90;;;;;;4963136;28;20416;-76
2021/10/20 10:01:57;;;;;;;9.15;7.95;;;15.20;99.90;;;;;;5009194;28;20046;-75
2021/10/20 10:04:27;;;;;;;12.38;8.10;;;15.40;99.90;;;;;;4994777;28;20058;-74
2021/10/20 10:06:53;;;;;;;9.82;7.82;;;15.60;99.90;;;;;;5008746;28;20454;-75
2021/10/20 10:09:26;;;;;;;9.70;8.73;;;15.80;99.90;;;;;;5027360;28;20443;-76
2021/10/20 10:12:17;;;;;;;12.27;7.97;;;16.00;99.90;;;;;;5027002;28;20056;-75
2021/10/20 10:14:48;;;;;;;8.70;7.85;;;16.00;99.90;;;;;;4976567;28;20064;-74
2021/10/20 10:17:17;;;;;;;11.65;8.63;;;15.80;99.90;;;;;;5023693;28;20052;-76
2021/10/20 10:19:45;;;;;;;13.32;9.20;;;15.50;99.90;;;;;;5019103;28;20053;-77
2021/10/20 10:22:26;;;;;;;11.15;9.13;;;15.40;99.90;;;;;;5012683;28;20054;-77
2021/10/20 10:24:58;;;;;;;15.23;11.23;;;15.20;99.90;;;;;;4988920;28;20508;-77
2021/10/20 10:27:25;;;;;;;12.45;11.13;;;15.20;99.90;;;;;;4976534;28;20046;-76
2021/10/20 10:29:53;;;;;;;17.17;9.90;;;15.20;99.90;;;;;;4997983;28;20191;-76
2021/10/20 10:32:39;;;;;;;10.90;9.80;;;15.10;99.90;;;;;;4990006;28;20068;-76
2021/10/20 10:35:07;;;;;;;10.95;9.85;;;15.00;99.90;;;;;;5007308;28;20393;-76
2021/10/20 10:37:36;;;;;;;13.85;10.15;;;14.90;99.90;;;;;;5003162;28;20057;-76
2021/10/20 10:40:18;;;;;;;12.05;8.55;;;15.00;99.90;;;;;;5007312;28;20050;-75
2021/10/20 10:42:47;;;;;;;10.30;8.90;;;15.20;99.90;;;;;;4990320;28;20500;-76
2021/10/20 10:45:22;;;;;;;11.02;9.32;;;15.30;99.90;;;;;;4997300;28;20049;-76
2021/10/20 10:48:04;;;;;;;;;;;15.50;99.90;;;;;;5003065;28;20557;-76
2021/10/20 10:50:53;;;;;;;10.95;8.73;;;15.60;99.90;;;;;;4990680;28;19991;-76
2021/10/20 10:53:30;;;;;;;10.55;8.02;;;15.40;99.90;;;;;;5005642;28;20067;-76
2021/10/20 10:56:15;;;;;;;10.32;8.13;;;15.30;99.90;;;;;;5023072;28;20427;-76
2021/10/20 10:59:02;;;;;;;;;;;15.30;99.90;;;;;;5000837;28;20042;-77
2021/10/20 11:01:49;;;;;;;8.73;7.10;;;15.20;99.90;;;;;;5006438;28;19928;-76
2021/10/20 11:04:19;;;;;;;10.85;8.98;;;15.10;99.90;;;;;;5017418;28;20512;-76
2021/10/20 11:06:47;;;;;;;10.57;8.43;;;15.10;99.90;;;;;;5002175;28;20052;-76
2021/10/20 11:09:16;;;;;;;11.57;8.52;;;15.20;99.90;;;;;;5010850;28;20570;-74
2021/10/20 11:11:55;;;;;;;9.75;8.60;;;15.30;99.90;;;;;;5016948;28;20159;-74
2021/10/20 11:14:24;;;;;;;11.30;8.32;;;15.40;99.90;;;;;;4991628;28;20062;-76
2021/10/20 11:17:04;;;;;;;10.73;8.55;;;15.50;99.90;;;;;;4992626;28;20050;-75
2021/10/20 11:19:31;;;;;;;10.38;8.80;;;15.40;99.90;;;;;;5001481;28;20061;-75
2021/10/20 11:22:02;;;;;;;10.48;8.25;;;15.30;99.90;;;;;;5003063;28;20100;-75
2021/10/20 11:24:32;;;;;;;12.35;9.60;;;15.20;99.90;;;;;;5005014;28;20054;-76
2021/10/20 11:27:02;;;;;;;11.40;9.18;;;15.10;99.90;;;;;;4986191;28;20567;-74
2021/10/20 11:29:28;;;;;;;10.52;8.32;;;15.10;99.90;;;;;;5011105;28;20061;-74
2021/10/20 11:31:58;;;;;;;10.45;9.18;;;15.10;99.90;;;;;;4981621;28;20037;-76
2021/10/20 11:34:26;;;;;;;10.93;9.02;;;15.20;99.90;;;;;;5025411;28;20108;-74
2021/10/20 11:36:54;;;;;;;10.93;9.73;;;15.20;99.90;;;;;;4991518;28;20317;-75
2021/10/20 11:39:21;;;;;;;13.15;9.48;;;15.20;99.90;;;;;;4991465;28;20055;-76
2021/10/20 11:41:54;;;;;;;12.93;8.68;;;15.20;99.90;;;;;;5023951;28;20088;-76
2021/10/20 11:44:32;;;;;;;12.77;10.02;;;15.20;99.90;;;;;;5009692;28;20046;-75
2021/10/20 11:47:01;;;;;;;11.50;8.52;;;15.20;99.90;;;;;;5004560;28;20096;-77
2021/10/20 11:49:28;;;;;;;10.55;8.93;;;15.30;99.90;;;;;;5018878;28;20096;-76
2021/10/20 11:51:56;;;;;;;15.40;9.38;;;15.40;99.90;;;;;;5005359;28;20073;-75
2021/10/20 11:54:25;;;;;;;10.38;8.88;;;15.50;99.90;;;;;;4977941;28;20104;-75
2021/10/20 11:56:55;;;;;;;12.60;8.50;;;15.70;99.90;;;;;;4983174;28;20045;-75
2021/10/20 11:59:31;;;;;;;10.23;8.15;;;15.90;99.90;;;;;;5018383;28;20073;-77
2021/10/20 12:02:00;;;;;;;8.90;8.00;;;16.30;99.90;;;;;;4994378;28;20100;-76
2021/10/20 12:04:29;;;;;;;9.00;7.93;;;16.60;99.90;;;;;;4989301;28;20141;-75
2021/10/20 12:07:01;;;;;;;10.40;9.40;;;16.80;99.90;;;;;;5005009;28;20480;-76
2021/10/20 12:09:30;;;;;;;10.45;8.75;;;16.80;99.90;;;;;;5005757;28;20050;-77
2021/10/20 12:11:59;;;;;;;9.82;8.85;;;16.80;99.90;;;;;;5003680;28;20120;-76
2021/10/20 12:14:37;;;;;;;10.93;9.80;;;16.80;99.90;;;;;;5007541;28;20424;-77
2021/10/20 12:17:07;;;;;;;10.07;9.10;;;16.70;99.90;;;;;;5013264;28;20049;-76
2021/10/20 12:19:37;;;;;;;15.02;9.98;;;16.80;99.90;;;;;;4993112;28;20041;-75
2021/10/20 12:22:12;;;;;;;12.23;9.23;;;16.70;99.90;;;;;;5005586;28;20050;-77
2021/10/20 12:24:42;;;;;;;10.38;9.30;;;16.70;99.90;;;;;;4956186;28;20100;-77
2021/10/20 12:27:11;;;;;;;12.70;9.18;;;16.70;99.90;;;;;;4996077;28;20333;-77
2021/10/20 12:29:46;;;;;;;10.15;9.15;;;16.70;99.90;;;;;;5010899;28;20100;-77
2021/10/20 12:32:18;;;;;;;10.27;9.27;;;16.60;99.90;;;;;;5008927;28;20088;-76
2021/10/20 12:35:08;;;;;;;10.10;9.05;;;16.60;99.90;;;;;;5005536;28;20038;-76
2021/10/20 12:37:43;;;;;;;13.02;8.95;;;16.60;99.90;;;;;;4986277;28;20283;-76
2021/10/20 12:40:12;;;;;;;10.35;9.30;;;16.60;99.90;;;;;;4987560;28;20551;-78
2021/10/20 12:42:52;;;;;;;10.13;8.68;;;16.50;99.90;;;;;;4970617;28;20257;-76
2021/10/20 12:45:20;;;;;;;10.43;9.13;;;16.40;99.90;;;;;;4988641;28;20057;-76
2021/10/20 12:47:49;;;;;;;10.10;9.10;;;16.30;99.90;;;;;;4984900;28;20046;-76
2021/10/20 12:50:22;;;;;;;10.15;9.15;;;16.30;99.90;;;;;;4993779;28;20100;-76
2021/10/20 12:52:49;;;;;;;13.07;8.80;;;16.30;99.90;;;;;;5007893;28;20131;-76